sensor_id;sensor_type;location;lat;lon;timestamp;temperature;humidity
70593;DHT22;58294;42.988;20.338;2023-04-15T00:00:10;180.10;1740.80
70593;DHT22;58294;42.988;20.338;2023-04-15T00:02:36;180.10;1740.80
70593;DHT22;58294;42.988;20.338;2023-04-15T00:05:04;180.00;1740.80
70593;DHT22;58294;42.988;20.338;2023-04-15T00:07:30;180.00;1740.80
70593;DHT22;58294;42.988;20.338;2023-04-15T00:09:57;180.00;1740.80
70593;DHT22;58294;42.988;20.338;2023-04-15T00:12:24;180.00;1740.80
70593;DHT22;58294;42.988;20.338;2023-04-15T00:14:50;180.00;1740.80
70593;DHT22;58294;42.988;20.338;2023-04-15T00:17:16;180.00;1766.40
70593;DHT22;58294;42.988;20.338;2023-04-15T00:19:42;179.90;1740.80
70593;DHT22;58294;42.988;20.338;2023-04-15T00:22:10;179.80;1715.20
70593;DHT22;58294;42.988;20.338;2023-04-15T00:24:37;179.70;1740.80
70593;DHT22;58294;42.988;20.338;2023-04-15T00:27:03;179.80;1740.80
70593;DHT22;58294;42.988;20.338;2023-04-15T00:29:29;179.60;1740.80
70593;DHT22;58294;42.988;20.338;2023-04-15T00:31:55;179.60;1740.80
70593;DHT22;58294;42.988;20.338;2023-04-15T00:34:23;179.50;1766.40
70593;DHT22;58294;42.988;20.338;2023-04-15T00:36:50;179.50;1766.40
70593;DHT22;58294;42.988;20.338;2023-04-15T00:39:17;179.50;1792.00
70593;DHT22;58294;42.988;20.338;2023-04-15T00:41:43;179.60;1817.60
70593;DHT22;58294;42.988;20.338;2023-04-15T00:44:10;179.60;1817.60
70593;DHT22;58294;42.988;20.338;2023-04-15T00:46:36;179.70;1792.00
70593;DHT22;58294;42.988;20.338;2023-04-15T00:49:04;179.70;1792.00
70593;DHT22;58294;42.988;20.338;2023-04-15T00:51:31;179.70;1792.00
70593;DHT22;58294;42.988;20.338;2023-04-15T00:53:59;179.70;1817.60
70593;DHT22;58294;42.988;20.338;2023-04-15T00:56:25;179.80;1817.60
70593;DHT22;58294;42.988;20.338;2023-04-15T00:58:53;179.80;1792.00
70593;DHT22;58294;42.988;20.338;2023-04-15T01:01:20;179.80;1792.00
70593;DHT22;58294;42.988;20.338;2023-04-15T01:03:49;179.80;1792.00
70593;DHT22;58294;42.988;20.338;2023-04-15T01:06:16;179.80;1766.40
70593;DHT22;58294;42.988;20.338;2023-04-15T01:08:42;179.70;1766.40
70593;DHT22;58294;42.988;20.338;2023-04-15T01:11:08;179.60;1792.00
70593;DHT22;58294;42.988;20.338;2023-04-15T01:13:35;179.60;1766.40
70593;DHT22;58294;42.988;20.338;2023-04-15T01:16:01;179.60;1817.60
70593;DHT22;58294;42.988;20.338;2023-04-15T01:18:28;179.60;1792.00
70593;DHT22;58294;42.988;20.338;2023-04-15T01:20:54;179.60;1792.00
70593;DHT22;58294;42.988;20.338;2023-04-15T01:23:21;179.60;1817.60
70593;DHT22;58294;42.988;20.338;2023-04-15T01:25:50;179.50;1817.60
70593;DHT22;58294;42.988;20.338;2023-04-15T01:28:18;179.50;1817.60
70593;DHT22;58294;42.988;20.338;2023-04-15T01:30:44;179.50;1792.00
70593;DHT22;58294;42.988;20.338;2023-04-15T01:33:10;179.50;1792.00
70593;DHT22;58294;42.988;20.338;2023-04-15T01:35:36;179.50;1817.60
70593;DHT22;58294;42.988;20.338;2023-04-15T01:38:06;179.50;1843.20
70593;DHT22;58294;42.988;20.338;2023-04-15T01:40:33;179.50;1843.20
70593;DHT22;58294;42.988;20.338;2023-04-15T01:43:00;179.60;1843.20
70593;DHT22;58294;42.988;20.338;2023-04-15T01:45:27;179.60;1817.60
70593;DHT22;58294;42.988;20.338;2023-04-15T01:47:53;179.70;1868.80
70593;DHT22;58294;42.988;20.338;2023-04-15T01:50:19;179.70;1817.60
70593;DHT22;58294;42.988;20.338;2023-04-15T01:52:46;179.70;1843.20
70593;DHT22;58294;42.988;20.338;2023-04-15T01:55:13;179.70;1843.20
70593;DHT22;58294;42.988;20.338;2023-04-15T01:57:39;179.70;1843.20
70593;DHT22;58294;42.988;20.338;2023-04-15T02:00:06;179.70;1843.20
70593;DHT22;58294;42.988;20.338;2023-04-15T02:02:34;179.70;1843.20
70593;DHT22;58294;42.988;20.338;2023-04-15T02:05:00;179.70;1868.80
70593;DHT22;58294;42.988;20.338;2023-04-15T02:07:26;179.80;1843.20
70593;DHT22;58294;42.988;20.338;2023-04-15T02:09:53;179.80;1843.20
70593;DHT22;58294;42.988;20.338;2023-04-15T02:12:19;179.80;1843.20
70593;DHT22;58294;42.988;20.338;2023-04-15T02:14:45;179.80;1843.20
70593;DHT22;58294;42.988;20.338;2023-04-15T02:17:11;179.80;1868.80
70593;DHT22;58294;42.988;20.338;2023-04-15T02:19:37;179.80;1843.20
70593;DHT22;58294;42.988;20.338;2023-04-15T02:22:04;179.80;1843.20
70593;DHT22;58294;42.988;20.338;2023-04-15T02:24:32;179.80;1843.20
70593;DHT22;58294;42.988;20.338;2023-04-15T02:26:58;179.90;1843.20
70593;DHT22;58294;42.988;20.338;2023-04-15T02:29:24;179.90;1868.80
70593;DHT22;58294;42.988;20.338;2023-04-15T02:31:50;179.90;1868.80
70593;DHT22;58294;42.988;20.338;2023-04-15T02:34:15;180.00;1817.60
70593;DHT22;58294;42.988;20.338;2023-04-15T02:36:41;180.00;1843.20
70593;DHT22;58294;42.988;20.338;2023-04-15T02:39:07;179.90;1817.60
70593;DHT22;58294;42.988;20.338;2023-04-15T02:41:33;179.90;1868.80
70593;DHT22;58294;42.988;20.338;2023-04-15T02:44:00;180.00;1868.80
70593;DHT22;58294;42.988;20.338;2023-04-15T02:46:25;180.00;1868.80
70593;DHT22;58294;42.988;20.338;2023-04-15T02:48:52;180.10;1843.20
70593;DHT22;58294;42.988;20.338;2023-04-15T02:51:21;180.10;1868.80
70593;DHT22;58294;42.988;20.338;2023-04-15T02:53:48;180.10;1843.20
70593;DHT22;58294;42.988;20.338;2023-04-15T02:56:14;180.10;1868.80
70593;DHT22;58294;42.988;20.338;2023-04-15T02:58:42;180.10;1843.20
70593;DHT22;58294;42.988;20.338;2023-04-15T03:01:09;180.10;1817.60
70593;DHT22;58294;42.988;20.338;2023-04-15T03:03:35;180.00;1817.60
70593;DHT22;58294;42.988;20.338;2023-04-15T03:06:01;179.90;1843.20
70593;DHT22;58294;42.988;20.338;2023-04-15T03:08:26;179.90;1843.20
70593;DHT22;58294;42.988;20.338;2023-04-15T03:10:52;179.90;1817.60
70593;DHT22;58294;42.988;20.338;2023-04-15T03:13:19;179.80;1843.20
70593;DHT22;58294;42.988;20.338;2023-04-15T03:15:46;179.80;1843.20
70593;DHT22;58294;42.988;20.338;2023-04-15T03:18:12;179.70;1843.20
70593;DHT22;58294;42.988;20.338;2023-04-15T03:20:38;179.70;1868.80
70593;DHT22;58294;42.988;20.338;2023-04-15T03:23:04;179.80;1894.40
70593;DHT22;58294;42.988;20.338;2023-04-15T03:25:30;179.80;1920.00
70593;DHT22;58294;42.988;20.338;2023-04-15T03:27:56;179.90;1920.00
70593;DHT22;58294;42.988;20.338;2023-04-15T03:30:22;179.90;1894.40
70593;DHT22;58294;42.988;20.338;2023-04-15T03:32:48;179.90;1894.40
70593;DHT22;58294;42.988;20.338;2023-04-15T03:35:14;180.00;1894.40
70593;DHT22;58294;42.988;20.338;2023-04-15T03:37:40;180.00;1894.40
70593;DHT22;58294;42.988;20.338;2023-04-15T03:40:06;180.00;1894.40
70593;DHT22;58294;42.988;20.338;2023-04-15T03:42:33;180.00;1920.00
70593;DHT22;58294;42.988;20.338;2023-04-15T03:44:58;180.10;1920.00
70593;DHT22;58294;42.988;20.338;2023-04-15T03:47:24;180.10;1920.00
70593;DHT22;58294;42.988;20.338;2023-04-15T03:49:50;180.10;1868.80
70593;DHT22;58294;42.988;20.338;2023-04-15T03:52:16;204.80;1920.00
70593;DHT22;58294;42.988;20.338;2023-04-15T03:54:42;204.80;1868.80
70593;DHT22;58294;42.988;20.338;2023-04-15T03:57:08;180.10;1894.40
70593;DHT22;58294;42.988;20.338;2023-04-15T03:59:33;180.10;1894.40
70593;DHT22;58294;42.988;20.338;2023-04-15T04:01:59;180.10;1894.40
70593;DHT22;58294;42.988;20.338;2023-04-15T04:04:25;180.00;1843.20
70593;DHT22;58294;42.988;20.338;2023-04-15T04:06:51;179.90;1868.80
70593;DHT22;58294;42.988;20.338;2023-04-15T04:09:16;179.90;1894.40
70593;DHT22;58294;42.988;20.338;2023-04-15T04:11:42;179.90;1894.40
70593;DHT22;58294;42.988;20.338;2023-04-15T04:14:09;179.80;1843.20
70593;DHT22;58294;42.988;20.338;2023-04-15T04:16:35;179.70;1894.40
70593;DHT22;58294;42.988;20.338;2023-04-15T04:19:01;179.60;1868.80
70593;DHT22;58294;42.988;20.338;2023-04-15T04:21:27;179.50;1920.00
70593;DHT22;58294;42.988;20.338;2023-04-15T04:23:53;179.50;1945.60
70593;DHT22;58294;42.988;20.338;2023-04-15T04:26:19;179.50;1920.00
70593;DHT22;58294;42.988;20.338;2023-04-15T04:28:45;179.50;1894.40
70593;DHT22;58294;42.988;20.338;2023-04-15T04:31:11;179.50;1920.00
70593;DHT22;58294;42.988;20.338;2023-04-15T04:33:36;179.40;1894.40
70593;DHT22;58294;42.988;20.338;2023-04-15T04:36:02;179.40;1894.40
70593;DHT22;58294;42.988;20.338;2023-04-15T04:38:28;179.30;1920.00
70593;DHT22;58294;42.988;20.338;2023-04-15T04:40:54;179.30;1945.60
70593;DHT22;58294;42.988;20.338;2023-04-15T04:43:19;179.30;1920.00
70593;DHT22;58294;42.988;20.338;2023-04-15T04:45:45;179.20;1945.60
70593;DHT22;58294;42.988;20.338;2023-04-15T04:48:11;179.20;1971.20
70593;DHT22;58294;42.988;20.338;2023-04-15T04:50:37;179.20;1945.60
70593;DHT22;58294;42.988;20.338;2023-04-15T04:53:03;179.20;1971.20
70593;DHT22;58294;42.988;20.338;2023-04-15T04:55:29;179.30;1971.20
70593;DHT22;58294;42.988;20.338;2023-04-15T04:57:56;179.40;1996.80
70593;DHT22;58294;42.988;20.338;2023-04-15T05:00:22;179.40;2022.40
70593;DHT22;58294;42.988;20.338;2023-04-15T05:02:47;179.50;2022.40
70593;DHT22;58294;42.988;20.338;2023-04-15T05:05:13;179.50;2022.40
70593;DHT22;58294;42.988;20.338;2023-04-15T05:07:39;179.50;1996.80
70593;DHT22;58294;42.988;20.338;2023-04-15T05:10:05;179.50;1971.20
70593;DHT22;58294;42.988;20.338;2023-04-15T05:12:31;179.50;1971.20
70593;DHT22;58294;42.988;20.338;2023-04-15T05:14:57;179.50;1971.20
70593;DHT22;58294;42.988;20.338;2023-04-15T05:17:23;179.50;1971.20
70593;DHT22;58294;42.988;20.338;2023-04-15T05:19:49;179.50;1996.80
70593;DHT22;58294;42.988;20.338;2023-04-15T05:22:15;179.50;1996.80
70593;DHT22;58294;42.988;20.338;2023-04-15T05:24:41;179.60;1996.80
70593;DHT22;58294;42.988;20.338;2023-04-15T05:27:06;179.60;2022.40
70593;DHT22;58294;42.988;20.338;2023-04-15T05:29:33;179.60;1996.80
70593;DHT22;58294;42.988;20.338;2023-04-15T05:31:59;179.70;1996.80
70593;DHT22;58294;42.988;20.338;2023-04-15T05:34:25;179.70;2048.00
70593;DHT22;58294;42.988;20.338;2023-04-15T05:36:51;179.70;2048.00
70593;DHT22;58294;42.988;20.338;2023-04-15T05:39:17;179.80;2048.00
70593;DHT22;58294;42.988;20.338;2023-04-15T05:41:43;179.80;2022.40
70593;DHT22;58294;42.988;20.338;2023-04-15T05:44:09;179.90;2048.00
70593;DHT22;58294;42.988;20.338;2023-04-15T05:46:35;180.00;2048.00
70593;DHT22;58294;42.988;20.338;2023-04-15T05:49:00;180.00;2048.00
70593;DHT22;58294;42.988;20.338;2023-04-15T05:51:26;180.10;2048.00
70593;DHT22;58294;42.988;20.338;2023-04-15T05:53:52;204.80;2048.00
70593;DHT22;58294;42.988;20.338;2023-04-15T05:56:18;204.80;2073.60
70593;DHT22;58294;42.988;20.338;2023-04-15T05:58:45;204.90;2099.20
70593;DHT22;58294;42.988;20.338;2023-04-15T06:01:11;205.00;2099.20
70593;DHT22;58294;42.988;20.338;2023-04-15T06:03:37;205.20;2073.60
70593;DHT22;58294;42.988;20.338;2023-04-15T06:06:03;205.30;2099.20
70593;DHT22;58294;42.988;20.338;2023-04-15T06:08:29;205.40;2099.20
70593;DHT22;58294;42.988;20.338;2023-04-15T06:10:55;205.50;2073.60
70593;DHT22;58294;42.988;20.338;2023-04-15T06:13:21;205.60;2099.20
70593;DHT22;58294;42.988;20.338;2023-04-15T06:15:46;230.40;2048.00
70593;DHT22;58294;42.988;20.338;2023-04-15T06:18:13;230.40;2073.60
70593;DHT22;58294;42.988;20.338;2023-04-15T06:20:38;230.50;2073.60
70593;DHT22;58294;42.988;20.338;2023-04-15T06:23:04;230.60;2022.40
70593;DHT22;58294;42.988;20.338;2023-04-15T06:25:30;230.60;1971.20
70593;DHT22;58294;42.988;20.338;2023-04-15T06:27:56;230.70;2022.40
70593;DHT22;58294;42.988;20.338;2023-04-15T06:30:22;230.80;1996.80
70593;DHT22;58294;42.988;20.338;2023-04-15T06:32:47;230.80;2048.00
70593;DHT22;58294;42.988;20.338;2023-04-15T06:35:13;230.90;2022.40
70593;DHT22;58294;42.988;20.338;2023-04-15T06:37:40;230.90;2022.40
70593;DHT22;58294;42.988;20.338;2023-04-15T06:40:06;231.00;1996.80
70593;DHT22;58294;42.988;20.338;2023-04-15T06:42:33;231.10;1996.80
70593;DHT22;58294;42.988;20.338;2023-04-15T06:44:59;231.20;1996.80
70593;DHT22;58294;42.988;20.338;2023-04-15T06:47:25;231.20;1971.20
70593;DHT22;58294;42.988;20.338;2023-04-15T06:49:51;231.20;1971.20
70593;DHT22;58294;42.988;20.338;2023-04-15T06:52:17;231.30;1971.20
70593;DHT22;58294;42.988;20.338;2023-04-15T06:54:43;256.00;1996.80
70593;DHT22;58294;42.988;20.338;2023-04-15T06:57:08;256.20;2022.40
70593;DHT22;58294;42.988;20.338;2023-04-15T06:59:35;256.30;1971.20
70593;DHT22;58294;42.988;20.338;2023-04-15T07:02:00;256.30;1945.60
70593;DHT22;58294;42.988;20.338;2023-04-15T07:04:26;256.30;1945.60
70593;DHT22;58294;42.988;20.338;2023-04-15T07:06:53;256.40;1996.80
70593;DHT22;58294;42.988;20.338;2023-04-15T07:09:21;256.50;1945.60
70593;DHT22;58294;42.988;20.338;2023-04-15T07:11:47;256.60;1945.60
70593;DHT22;58294;42.988;20.338;2023-04-15T07:14:14;256.70;1971.20
70593;DHT22;58294;42.988;20.338;2023-04-15T07:16:39;256.80;1971.20
70593;DHT22;58294;42.988;20.338;2023-04-15T07:19:05;281.60;1996.80
70593;DHT22;58294;42.988;20.338;2023-04-15T07:21:31;281.80;1996.80
70593;DHT22;58294;42.988;20.338;2023-04-15T07:23:57;282.00;2022.40
70593;DHT22;58294;42.988;20.338;2023-04-15T07:26:23;282.20;2073.60
70593;DHT22;58294;42.988;20.338;2023-04-15T07:28:49;282.40;2022.40
70593;DHT22;58294;42.988;20.338;2023-04-15T07:31:15;282.50;1971.20
70593;DHT22;58294;42.988;20.338;2023-04-15T07:33:41;307.30;2022.40
70593;DHT22;58294;42.988;20.338;2023-04-15T07:36:08;307.50;2048.00
70593;DHT22;58294;42.988;20.338;2023-04-15T07:38:34;307.80;2124.80
70593;DHT22;58294;42.988;20.338;2023-04-15T07:41:00;308.10;1996.80
70593;DHT22;58294;42.988;20.338;2023-04-15T07:43:26;332.90;2304.00
70593;DHT22;58294;42.988;20.338;2023-04-15T07:45:52;333.10;1945.60
70593;DHT22;58294;42.988;20.338;2023-04-15T07:48:17;333.30;1894.40
70593;DHT22;58294;42.988;20.338;2023-04-15T07:53:09;333.50;1689.60
70593;DHT22;58294;42.988;20.338;2023-04-15T07:55:35;333.50;1664.00
70593;DHT22;58294;42.988;20.338;2023-04-15T07:58:01;333.50;1664.00
70593;DHT22;58294;42.988;20.338;2023-04-15T08:00:26;333.60;1766.40
70593;DHT22;58294;42.988;20.338;2023-04-15T08:02:52;333.60;1715.20
70593;DHT22;58294;42.988;20.338;2023-04-15T08:05:18;333.60;1510.40
70593;DHT22;58294;42.988;20.338;2023-04-15T08:07:44;333.50;1612.80
70593;DHT22;58294;42.988;20.338;2023-04-15T08:10:11;333.50;1638.40
70593;DHT22;58294;42.988;20.338;2023-04-15T08:12:37;333.50;1638.40
70593;DHT22;58294;42.988;20.338;2023-04-15T08:15:03;333.60;1638.40
70593;DHT22;58294;42.988;20.338;2023-04-15T08:17:29;333.70;1612.80
70593;DHT22;58294;42.988;20.338;2023-04-15T08:19:54;358.40;1638.40
70593;DHT22;58294;42.988;20.338;2023-04-15T08:22:20;358.40;1664.00
70593;DHT22;58294;42.988;20.338;2023-04-15T08:24:46;358.50;1689.60
70593;DHT22;58294;42.988;20.338;2023-04-15T08:27:12;358.60;1664.00
70593;DHT22;58294;42.988;20.338;2023-04-15T08:29:38;358.70;1638.40
70593;DHT22;58294;42.988;20.338;2023-04-15T08:32:05;358.90;1664.00
70593;DHT22;58294;42.988;20.338;2023-04-15T08:34:31;359.00;1612.80
70593;DHT22;58294;42.988;20.338;2023-04-15T08:36:57;359.10;1587.20
70593;DHT22;58294;42.988;20.338;2023-04-15T08:39:23;359.20;1587.20
70593;DHT22;58294;42.988;20.338;2023-04-15T08:41:59;359.30;1587.20
70593;DHT22;58294;42.988;20.338;2023-04-15T08:44:28;359.30;1587.20
70593;DHT22;58294;42.988;20.338;2023-04-15T08:46:58;384.10;1587.20
70593;DHT22;58294;42.988;20.338;2023-04-15T08:49:26;384.30;1587.20
70593;DHT22;58294;42.988;20.338;2023-04-15T08:51:54;384.60;1715.20
70593;DHT22;58294;42.988;20.338;2023-04-15T08:54:21;384.70;1587.20
70593;DHT22;58294;42.988;20.338;2023-04-15T08:56:47;384.80;1459.20
70593;DHT22;58294;42.988;20.338;2023-04-15T08:59:14;384.80;1459.20
70593;DHT22;58294;42.988;20.338;2023-04-15T09:01:41;384.70;1331.20
70593;DHT22;58294;42.988;20.338;2023-04-15T09:04:07;384.60;1228.80
70593;DHT22;58294;42.988;20.338;2023-04-15T09:06:33;384.40;1254.40
70593;DHT22;58294;42.988;20.338;2023-04-15T09:08:59;384.40;1254.40
70593;DHT22;58294;42.988;20.338;2023-04-15T09:11:25;384.40;1382.40
70593;DHT22;58294;42.988;20.338;2023-04-15T09:13:51;384.40;1305.60
70593;DHT22;58294;42.988;20.338;2023-04-15T09:16:17;384.20;1203.20
70593;DHT22;58294;42.988;20.338;2023-04-15T09:18:43;384.20;1203.20
70593;DHT22;58294;42.988;20.338;2023-04-15T09:21:11;384.10;1331.20
70593;DHT22;58294;42.988;20.338;2023-04-15T09:23:40;384.20;1408.00
70593;DHT22;58294;42.988;20.338;2023-04-15T09:26:06;384.40;1280.00
70593;DHT22;58294;42.988;20.338;2023-04-15T09:28:34;384.30;1305.60
70593;DHT22;58294;42.988;20.338;2023-04-15T09:31:05;384.40;1331.20
70593;DHT22;58294;42.988;20.338;2023-04-15T09:33:32;384.20;1280.00
70593;DHT22;58294;42.988;20.338;2023-04-15T09:36:03;384.30;1228.80
70593;DHT22;58294;42.988;20.338;2023-04-15T09:38:30;384.40;1228.80
70593;DHT22;58294;42.988;20.338;2023-04-15T09:40:57;384.40;1305.60
70593;DHT22;58294;42.988;20.338;2023-04-15T09:43:39;384.50;1254.40
70593;DHT22;58294;42.988;20.338;2023-04-15T09:46:05;384.40;1203.20
70593;DHT22;58294;42.988;20.338;2023-04-15T09:48:31;384.20;1203.20
70593;DHT22;58294;42.988;20.338;2023-04-15T09:50:58;384.10;1228.80
70593;DHT22;58294;42.988;20.338;2023-04-15T09:53:25;384.10;1203.20
70593;DHT22;58294;42.988;20.338;2023-04-15T09:55:55;384.10;1228.80
70593;DHT22;58294;42.988;20.338;2023-04-15T09:58:23;384.00;1228.80
70593;DHT22;58294;42.988;20.338;2023-04-15T10:00:50;359.30;1228.80
70593;DHT22;58294;42.988;20.338;2023-04-15T10:03:25;359.30;1254.40
70593;DHT22;58294;42.988;20.338;2023-04-15T10:06:00;359.30;1254.40
70593;DHT22;58294;42.988;20.338;2023-04-15T10:08:30;384.20;1280.00
70593;DHT22;58294;42.988;20.338;2023-04-15T10:10:57;384.60;1382.40
70593;DHT22;58294;42.988;20.338;2023-04-15T10:13:24;409.60;1459.20
70593;DHT22;58294;42.988;20.338;2023-04-15T10:15:59;410.00;1356.80
70593;DHT22;58294;42.988;20.338;2023-04-15T10:18:27;435.70;1894.40
70593;DHT22;58294;42.988;20.338;2023-04-15T10:20:53;460.90;1510.40
70593;DHT22;58294;42.988;20.338;2023-04-15T10:23:28;461.20;1484.80
70593;DHT22;58294;42.988;20.338;2023-04-15T10:25:54;461.30;1510.40
70593;DHT22;58294;42.988;20.338;2023-04-15T10:28:20;461.20;1152.00
70593;DHT22;58294;42.988;20.338;2023-04-15T10:30:49;436.10;1075.20
70593;DHT22;58294;42.988;20.338;2023-04-15T10:33:22;460.90;1126.40
70593;DHT22;58294;42.988;20.338;2023-04-15T10:35:50;461.20;1177.60
70593;DHT22;58294;42.988;20.338;2023-04-15T10:38:35;461.20;1024.00
70593;DHT22;58294;42.988;20.338;2023-04-15T10:41:25;461.30;1126.40
70593;DHT22;58294;42.988;20.338;2023-04-15T10:44:00;487.10;1203.20
70593;DHT22;58294;42.988;20.338;2023-04-15T10:46:37;486.80;1228.80
70593;DHT22;58294;42.988;20.338;2023-04-15T10:49:08;486.90;1024.00
70593;DHT22;58294;42.988;20.338;2023-04-15T10:51:50;487.20;1024.00
70593;DHT22;58294;42.988;20.338;2023-04-15T10:54:31;512.30;1024.00
70593;DHT22;58294;42.988;20.338;2023-04-15T10:59:30;538.30;1152.00
70593;DHT22;58294;42.988;20.338;2023-04-15T11:02:00;563.90;1100.80
70593;DHT22;58294;42.988;20.338;2023-04-15T11:04:54;588.80;1049.60
70593;DHT22;58294;42.988;20.338;2023-04-15T11:07:38;589.60;998.40
70593;DHT22;58294;42.988;20.338;2023-04-15T11:12:52;563.90;819.20
70593;DHT22;58294;42.988;20.338;2023-04-15T11:15:41;563.20;870.40
70593;DHT22;58294;42.988;20.338;2023-04-15T11:18:21;512.60;844.80
70593;DHT22;58294;42.988;20.338;2023-04-15T11:20:49;512.20;998.40
70593;DHT22;58294;42.988;20.338;2023-04-15T11:23:58;512.00;947.20
70593;DHT22;58294;42.988;20.338;2023-04-15T11:26:07;512.80;1024.00
70593;DHT22;58294;42.988;20.338;2023-04-15T11:28:44;537.70;1075.20
70593;DHT22;58294;42.988;20.338;2023-04-15T11:31:15;563.30;1126.40
70593;DHT22;58294;42.988;20.338;2023-04-15T11:33:52;563.80;947.20
70593;DHT22;58294;42.988;20.338;2023-04-15T11:36:18;589.20;947.20
70593;DHT22;58294;42.988;20.338;2023-04-15T11:38:46;589.70;1126.40
70593;DHT22;58294;42.988;20.338;2023-04-15T11:41:12;614.60;844.80
70593;DHT22;58294;42.988;20.338;2023-04-15T11:43:38;614.60;844.80
70593;DHT22;58294;42.988;20.338;2023-04-15T11:46:04;614.70;768.00
70593;DHT22;58294;42.988;20.338;2023-04-15T11:48:32;614.40;768.00
70593;DHT22;58294;42.988;20.338;2023-04-15T11:51:02;589.70;972.80
70593;DHT22;58294;42.988;20.338;2023-04-15T11:56:10;614.50;742.40
70593;DHT22;58294;42.988;20.338;2023-04-15T11:58:38;564.00;819.20
70593;DHT22;58294;42.988;20.338;2023-04-15T12:01:04;563.70;844.80
70593;DHT22;58294;42.988;20.338;2023-04-15T12:03:55;563.90;921.60
70593;DHT22;58294;42.988;20.338;2023-04-15T12:06:22;589.30;896.00
70593;DHT22;58294;42.988;20.338;2023-04-15T12:14:12;614.60;742.40
70593;DHT22;58294;42.988;20.338;2023-04-15T12:16:43;614.90;793.60
70593;DHT22;58294;42.988;20.338;2023-04-15T12:19:14;614.70;742.40
70593;DHT22;58294;42.988;20.338;2023-04-15T12:21:44;614.90;819.20
70593;DHT22;58294;42.988;20.338;2023-04-15T12:24:11;615.30;844.80
70593;DHT22;58294;42.988;20.338;2023-04-15T12:26:43;640.00;742.40
70593;DHT22;58294;42.988;20.338;2023-04-15T12:29:10;615.20;742.40
70593;DHT22;58294;42.988;20.338;2023-04-15T12:31:45;614.90;742.40
70593;DHT22;58294;42.988;20.338;2023-04-15T12:34:12;614.90;742.40
70593;DHT22;58294;42.988;20.338;2023-04-15T12:36:38;614.50;691.20
70593;DHT22;58294;42.988;20.338;2023-04-15T12:39:05;614.70;742.40
70593;DHT22;58294;42.988;20.338;2023-04-15T12:41:31;614.90;691.20
70593;DHT22;58294;42.988;20.338;2023-04-15T12:43:57;589.70;665.60
70593;DHT22;58294;42.988;20.338;2023-04-15T12:46:24;589.00;691.20
70593;DHT22;58294;42.988;20.338;2023-04-15T12:48:50;563.70;742.40
70593;DHT22;58294;42.988;20.338;2023-04-15T12:51:17;538.40;716.80
70593;DHT22;58294;42.988;20.338;2023-04-15T12:53:43;537.90;742.40
70593;DHT22;58294;42.988;20.338;2023-04-15T12:56:09;512.60;716.80
70593;DHT22;58294;42.988;20.338;2023-04-15T12:58:35;512.00;768.00
70593;DHT22;58294;42.988;20.338;2023-04-15T13:01:01;487.10;793.60
70593;DHT22;58294;42.988;20.338;2023-04-15T13:03:27;486.90;819.20
70593;DHT22;58294;42.988;20.338;2023-04-15T13:05:53;486.80;819.20
70593;DHT22;58294;42.988;20.338;2023-04-15T13:08:19;486.60;819.20
70593;DHT22;58294;42.988;20.338;2023-04-15T13:10:45;486.50;844.80
70593;DHT22;58294;42.988;20.338;2023-04-15T13:13:11;486.40;844.80
70593;DHT22;58294;42.988;20.338;2023-04-15T13:15:37;486.40;844.80
70593;DHT22;58294;42.988;20.338;2023-04-15T13:18:05;461.50;819.20
70593;DHT22;58294;42.988;20.338;2023-04-15T13:20:31;461.30;870.40
70593;DHT22;58294;42.988;20.338;2023-04-15T13:22:57;461.10;896.00
70593;DHT22;58294;42.988;20.338;2023-04-15T13:25:23;461.00;896.00
70593;DHT22;58294;42.988;20.338;2023-04-15T13:27:50;460.90;870.40
70593;DHT22;58294;42.988;20.338;2023-04-15T13:30:16;436.00;844.80
70593;DHT22;58294;42.988;20.338;2023-04-15T13:32:43;435.80;870.40
70593;DHT22;58294;42.988;20.338;2023-04-15T13:35:08;435.70;870.40
70593;DHT22;58294;42.988;20.338;2023-04-15T13:37:34;435.70;896.00
70593;DHT22;58294;42.988;20.338;2023-04-15T13:40:00;435.60;896.00
70593;DHT22;58294;42.988;20.338;2023-04-15T13:42:26;435.70;921.60
70593;DHT22;58294;42.988;20.338;2023-04-15T13:44:52;435.70;896.00
70593;DHT22;58294;42.988;20.338;2023-04-15T13:47:18;435.70;896.00
70593;DHT22;58294;42.988;20.338;2023-04-15T13:49:44;435.70;896.00
70593;DHT22;58294;42.988;20.338;2023-04-15T13:52:11;435.70;921.60
70593;DHT22;58294;42.988;20.338;2023-04-15T13:54:37;435.70;896.00
70593;DHT22;58294;42.988;20.338;2023-04-15T13:57:02;435.40;896.00
70593;DHT22;58294;42.988;20.338;2023-04-15T13:59:28;435.20;896.00
70593;DHT22;58294;42.988;20.338;2023-04-15T14:01:54;410.40;921.60
70593;DHT22;58294;42.988;20.338;2023-04-15T14:04:20;410.40;921.60
70593;DHT22;58294;42.988;20.338;2023-04-15T14:06:46;410.30;921.60
70593;DHT22;58294;42.988;20.338;2023-04-15T14:09:12;410.30;947.20
70593;DHT22;58294;42.988;20.338;2023-04-15T14:11:38;410.20;921.60
70593;DHT22;58294;42.988;20.338;2023-04-15T14:14:04;410.30;947.20
70593;DHT22;58294;42.988;20.338;2023-04-15T14:16:33;410.30;921.60
70593;DHT22;58294;42.988;20.338;2023-04-15T14:19:00;410.30;921.60
70593;DHT22;58294;42.988;20.338;2023-04-15T14:21:26;410.30;921.60
70593;DHT22;58294;42.988;20.338;2023-04-15T14:23:56;410.10;947.20
70593;DHT22;58294;42.988;20.338;2023-04-15T14:26:22;410.00;947.20
70593;DHT22;58294;42.988;20.338;2023-04-15T14:28:48;409.90;947.20
70593;DHT22;58294;42.988;20.338;2023-04-15T14:31:14;409.90;947.20
70593;DHT22;58294;42.988;20.338;2023-04-15T14:33:40;410.00;972.80
70593;DHT22;58294;42.988;20.338;2023-04-15T14:36:07;409.80;972.80
70593;DHT22;58294;42.988;20.338;2023-04-15T14:38:34;409.80;972.80
70593;DHT22;58294;42.988;20.338;2023-04-15T14:41:05;409.80;972.80
70593;DHT22;58294;42.988;20.338;2023-04-15T14:43:31;409.70;972.80
70593;DHT22;58294;42.988;20.338;2023-04-15T14:45:57;409.70;947.20
70593;DHT22;58294;42.988;20.338;2023-04-15T14:48:23;409.70;972.80
70593;DHT22;58294;42.988;20.338;2023-04-15T14:50:49;409.60;947.20
70593;DHT22;58294;42.988;20.338;2023-04-15T14:53:15;384.90;921.60